createdAt,value
2019-03-29T00:02:18.520Z,11.53
2019-03-29T00:04:48.599Z,11.17
2019-03-29T00:07:18.590Z,10.37
2019-03-29T00:09:48.628Z,10.80
2019-03-29T00:12:18.581Z,11.60
2019-03-29T00:14:48.576Z,10.17
2019-03-29T00:17:18.548Z,12.10
2019-03-29T00:19:48.522Z,11.63
2019-03-29T00:22:18.454Z,10.03
2019-03-29T00:24:48.461Z,10.03
2019-03-29T00:27:19.095Z,11.93
2019-03-29T00:29:49.155Z,9.60
2019-03-29T00:32:19.085Z,9.80
2019-03-29T00:34:49.094Z,10.33
2019-03-29T00:37:19.042Z,9.90
2019-03-29T00:39:48.955Z,9.83
2019-03-29T00:42:18.912Z,11.00
2019-03-29T00:44:48.870Z,11.37
2019-03-29T00:47:18.785Z,9.23
2019-03-29T00:49:48.728Z,11.90
2019-03-29T00:52:18.699Z,12.17
2019-03-29T00:54:48.657Z,8.20
2019-03-29T00:57:18.710Z,12.33
2019-03-29T00:59:48.875Z,9.50
2019-03-29T01:02:19.065Z,11.27
2019-03-29T01:04:49.317Z,10.07
2019-03-29T01:07:19.310Z,9.93
2019-03-29T01:09:49.298Z,9.60
2019-03-29T01:12:19.306Z,10.47
2019-03-29T01:14:49.327Z,11.77
2019-03-29T01:17:20.018Z,12.43
2019-03-29T01:19:50.325Z,11.27
2019-03-29T01:22:20.477Z,9.83
2019-03-29T01:24:50.435Z,9.17
2019-03-29T01:27:20.391Z,11.67
2019-03-29T01:29:50.362Z,10.67
2019-03-29T01:32:20.377Z,9.93
2019-03-29T01:34:50.361Z,10.23
2019-03-29T01:37:20.363Z,9.93
2019-03-29T01:39:50.317Z,8.83
2019-03-29T01:42:20.274Z,8.77
2019-03-29T01:44:50.252Z,10.03
2019-03-29T01:47:20.244Z,8.47
2019-03-29T01:49:50.336Z,10.13
2019-03-29T01:52:20.306Z,12.73
2019-03-29T01:54:50.324Z,8.33
2019-03-29T01:57:20.265Z,8.83
2019-03-29T01:59:50.244Z,11.20
2019-03-29T02:02:21.031Z,10.93
2019-03-29T02:04:51.106Z,11.50
2019-03-29T02:07:21.119Z,12.77
2019-03-29T02:09:51.086Z,8.73
2019-03-29T02:12:21.067Z,12.90
2019-03-29T02:14:51.180Z,11.23
2019-03-29T02:17:21.888Z,10.63
2019-03-29T02:19:51.968Z,12.70
2019-03-29T02:22:21.914Z,11.27
2019-03-29T02:24:51.908Z,11.63
2019-03-29T02:27:21.926Z,10.40
2019-03-29T02:29:51.918Z,12.27
2019-03-29T02:32:21.893Z,10.33
2019-03-29T02:37:16.493Z,10.20
2019-03-29T02:39:46.485Z,11.77
2019-03-29T02:42:16.400Z,10.90
2019-03-29T02:44:46.312Z,11.37
2019-03-29T02:47:16.237Z,11.87
2019-03-29T02:49:46.158Z,11.27
2019-03-29T02:52:16.092Z,10.23
2019-03-29T02:54:46.058Z,12.73
2019-03-29T02:57:16.061Z,12.30
2019-03-29T02:59:46.078Z,13.87
2019-03-29T03:02:16.016Z,10.70
2019-03-29T03:04:45.958Z,10.87
2019-03-29T03:07:15.996Z,12.07
2019-03-29T03:09:45.987Z,13.30
2019-03-29T03:12:15.931Z,11.83
2019-03-29T03:14:45.884Z,9.80
2019-03-29T03:17:15.855Z,10.37
2019-03-29T03:19:45.916Z,11.93
2019-03-29T03:22:15.872Z,14.73
2019-03-29T03:24:45.929Z,10.40
2019-03-29T03:27:16.060Z,12.33
2019-03-29T03:29:48.325Z,13.47
2019-03-29T03:32:17.721Z,13.70
2019-03-29T03:34:47.727Z,14.17
2019-03-29T03:37:17.728Z,15.10
2019-03-29T03:39:47.674Z,13.63
2019-03-29T03:42:17.625Z,12.63
2019-03-29T03:44:47.569Z,14.37
2019-03-29T03:47:17.555Z,12.20
2019-03-29T03:49:47.462Z,12.43
2019-03-29T03:52:17.464Z,11.53
2019-03-29T03:54:47.439Z,11.67
2019-03-29T03:57:17.514Z,11.77
2019-03-29T03:59:48.462Z,11.13
2019-03-29T04:02:18.411Z,11.57
2019-03-29T04:04:48.406Z,11.37
2019-03-29T04:07:18.315Z,14.27
2019-03-29T04:09:50.428Z,11.67
2019-03-29T04:12:19.916Z,12.03
2019-03-29T04:14:49.929Z,11.10
2019-03-29T04:17:19.925Z,11.70
2019-03-29T04:19:49.959Z,11.87
2019-03-29T04:22:20.023Z,12.50
2019-03-29T04:24:49.953Z,14.47
2019-03-29T04:27:19.878Z,11.27
2019-03-29T04:29:49.821Z,10.33
2019-03-29T04:32:19.896Z,12.07
2019-03-29T04:34:49.854Z,15.00
2019-03-29T04:37:19.839Z,13.20
2019-03-29T04:40:06.238Z,11.83
2019-03-29T04:42:21.438Z,11.17
2019-03-29T04:44:51.424Z,10.27
2019-03-29T04:47:21.490Z,11.87
2019-03-29T04:49:51.484Z,12.03
2019-03-29T04:52:21.455Z,14.20
2019-03-29T04:54:51.412Z,12.47
2019-03-29T04:57:21.387Z,12.67
2019-03-29T04:59:51.412Z,10.20
2019-03-29T05:02:21.326Z,9.60
2019-03-29T05:04:51.278Z,10.90
2019-03-29T05:07:21.265Z,11.03
2019-03-29T05:09:51.211Z,12.60
2019-03-29T05:12:21.126Z,11.37
2019-03-29T05:14:51.174Z,12.17
2019-03-29T05:17:21.723Z,10.80
2019-03-29T05:19:52.233Z,12.03
2019-03-29T05:22:22.438Z,15.73
2019-03-29T05:25:00.004Z,12.70
2019-03-29T05:27:25.585Z,11.53
2019-03-29T05:30:00.346Z,10.73
2019-03-29T05:32:29.498Z,14.97
2019-03-29T05:34:59.872Z,13.57
2019-03-29T05:37:30.245Z,13.10
2019-03-29T05:40:00.682Z,13.97
2019-03-29T05:42:31.438Z,13.23
2019-03-29T05:45:06.311Z,16.40
2019-03-29T05:47:36.842Z,12.27
2019-03-29T05:54:17.718Z,15.23
2019-03-29T06:00:30.565Z,12.73
2019-03-29T06:03:45.560Z,11.87
2019-03-29T06:06:15.779Z,14.83
2019-03-29T06:08:47.487Z,15.33
2019-03-29T06:11:17.619Z,11.80
2019-03-29T06:13:47.888Z,14.80
2019-03-29T06:16:18.027Z,13.73
2019-03-29T06:18:50.990Z,16.33
2019-03-29T06:21:21.995Z,15.20
2019-03-29T06:23:52.209Z,16.43
2019-03-29T06:26:22.423Z,15.87
2019-03-29T06:28:52.541Z,14.50
2019-03-29T06:31:22.686Z,15.30
2019-03-29T06:33:52.830Z,14.40
2019-03-29T06:36:25.453Z,14.47
2019-03-29T06:38:56.827Z,17.03
2019-03-29T06:41:26.961Z,13.03
2019-03-29T06:43:57.179Z,14.70
2019-03-29T06:46:27.294Z,13.60
2019-03-29T06:48:57.510Z,15.93
2019-03-29T06:51:27.717Z,17.07
2019-03-29T06:53:57.972Z,17.73
2019-03-29T06:56:28.224Z,18.40
2019-03-29T06:58:58.419Z,19.93
2019-03-29T07:01:28.610Z,19.83
2019-03-29T07:03:58.782Z,21.37
2019-03-29T07:06:30.496Z,25.17
2019-03-29T07:09:00.994Z,23.87
2019-03-29T07:11:31.078Z,19.70
2019-03-29T07:14:01.209Z,26.33
2019-03-29T07:16:31.492Z,23.83
2019-03-29T07:19:04.824Z,24.80
2019-03-29T07:21:33.648Z,27.37
2019-03-29T07:24:04.002Z,24.87
2019-03-29T07:26:34.161Z,28.37
2019-03-29T07:29:04.487Z,24.13
2019-03-29T07:31:34.730Z,25.77
2019-03-29T07:34:04.962Z,23.37
2019-03-29T07:36:35.164Z,23.77
2019-03-29T07:39:07.155Z,28.83
2019-03-29T07:41:37.351Z,23.73
2019-03-29T07:44:07.513Z,27.40
2019-03-29T07:46:38.161Z,28.67
2019-03-29T07:49:08.310Z,27.30
2019-03-29T07:51:38.472Z,25.60
2019-03-29T07:54:08.611Z,23.10
2019-03-29T07:56:38.792Z,20.70
2019-03-29T07:59:08.909Z,22.77
2019-03-29T08:01:39.063Z,22.17
2019-03-29T08:04:09.223Z,21.43
2019-03-29T08:06:39.456Z,20.23
2019-03-29T08:09:21.802Z,26.67
2019-03-29T08:11:46.542Z,22.87
2019-03-29T08:14:14.911Z,23.00
2019-03-29T08:16:45.122Z,20.53
2019-03-29T08:19:15.230Z,19.07
2019-03-29T08:21:45.406Z,20.47
2019-03-29T08:24:15.572Z,17.13
2019-03-29T08:26:45.731Z,18.60
2019-03-29T08:29:15.903Z,20.57
2019-03-29T08:31:46.120Z,20.73
2019-03-29T08:34:16.245Z,18.03
2019-03-29T08:36:46.487Z,24.37
2019-03-29T08:39:27.427Z,19.07
2019-03-29T08:41:59.419Z,16.90
2019-03-29T08:44:20.198Z,23.87
2019-03-29T08:46:50.289Z,16.83
2019-03-29T08:49:20.383Z,21.37
2019-03-29T08:51:50.464Z,19.87
2019-03-29T08:54:20.683Z,24.30
2019-03-29T08:56:50.915Z,20.70
2019-03-29T08:59:21.202Z,19.13
2019-03-29T09:01:51.398Z,20.20
2019-03-29T09:04:21.883Z,20.90
2019-03-29T09:06:53.997Z,22.17
2019-03-29T09:09:24.286Z,19.60
2019-03-29T09:11:54.390Z,20.67
2019-03-29T09:14:24.593Z,21.03
2019-03-29T09:16:54.736Z,20.53
2019-03-29T09:19:24.971Z,21.07
2019-03-29T09:21:55.076Z,22.10
2019-03-29T09:24:24.967Z,23.63
2019-03-29T09:26:54.813Z,22.57
2019-03-29T09:29:28.108Z,20.93
2019-03-29T09:31:57.976Z,19.27
2019-03-29T09:34:28.932Z,18.17
2019-03-29T09:37:00.036Z,16.30
2019-03-29T09:39:30.327Z,21.43
2019-03-29T09:42:00.214Z,18.00
2019-03-29T09:44:30.116Z,18.63
2019-03-29T09:47:00.001Z,18.90
2019-03-29T09:49:29.931Z,16.70
2019-03-29T09:52:00.400Z,14.53
2019-03-29T09:54:30.588Z,16.80
2019-03-29T09:57:02.249Z,15.67
2019-03-29T09:59:33.942Z,15.50
2019-03-29T10:02:09.421Z,12.70
2019-03-29T10:04:44.444Z,13.40
2019-03-29T10:07:15.554Z,11.47
2019-03-29T10:09:46.244Z,12.83
2019-03-29T10:12:18.849Z,12.90
2019-03-29T10:14:51.415Z,13.90
2019-03-29T10:17:25.825Z,13.57
2019-03-29T10:19:59.246Z,13.53
2019-03-29T10:22:30.299Z,16.33
2019-03-29T10:25:18.558Z,12.57
2019-03-29T10:27:39.205Z,14.30
2019-03-29T10:30:11.962Z,13.03
2019-03-29T10:32:44.047Z,15.50
2019-03-29T10:36:22.262Z,15.67
2019-03-29T10:38:54.055Z,18.50
2019-03-29T10:41:24.884Z,16.73
2019-03-29T10:43:56.036Z,13.13
2019-03-29T10:46:29.425Z,14.07
2019-03-29T10:49:01.861Z,16.03
2019-03-29T10:51:47.102Z,13.00
2019-03-29T10:54:20.829Z,12.67
2019-03-29T10:57:02.149Z,13.20
2019-03-29T10:59:32.781Z,10.83
2019-03-29T11:02:07.867Z,12.87
2019-03-29T11:04:38.408Z,10.67
2019-03-29T11:07:09.693Z,13.53
2019-03-29T11:09:40.325Z,11.30
2019-03-29T11:12:10.790Z,12.07
2019-03-29T11:14:41.335Z,9.80
2019-03-29T11:17:18.287Z,13.87
2019-03-29T11:19:51.865Z,11.97
2019-03-29T11:22:26.803Z,12.93
2019-03-29T11:25:03.682Z,13.07
2019-03-29T11:27:34.325Z,10.83
2019-03-29T11:30:06.572Z,12.77
2019-03-29T11:32:48.301Z,9.90
2019-03-29T11:35:33.121Z,12.00
2019-03-29T11:58:59.069Z,13.67
2019-03-29T12:01:31.472Z,11.90
2019-03-29T12:04:01.481Z,13.67
2019-03-29T12:06:31.415Z,12.27
2019-03-29T12:09:01.430Z,13.27
2019-03-29T12:11:31.595Z,11.50
2019-03-29T12:14:12.318Z,14.47
2019-03-29T12:17:56.335Z,12.97
2019-03-29T12:21:06.220Z,14.87
2019-03-29T12:23:42.717Z,14.23
2019-03-29T12:27:01.311Z,11.80
2019-03-29T12:29:31.341Z,10.90
2019-03-29T12:32:01.468Z,12.93
2019-03-29T12:34:31.473Z,12.87
2019-03-29T12:37:01.374Z,12.50
2019-03-29T12:39:31.263Z,15.57
2019-03-29T12:42:01.187Z,14.87
2019-03-29T12:44:33.148Z,12.90
2019-03-29T12:47:03.290Z,14.87
2019-03-29T12:49:33.152Z,12.63
2019-03-29T12:52:03.040Z,9.67
2019-03-29T12:54:33.149Z,13.80
2019-03-29T12:57:06.642Z,11.60
2019-03-29T12:59:35.098Z,13.30
2019-03-29T13:02:05.041Z,13.43
2019-03-29T13:04:34.933Z,16.30
2019-03-29T13:07:04.849Z,13.27
2019-03-29T13:09:34.715Z,18.70
2019-03-29T13:12:04.642Z,13.40
2019-03-29T13:14:34.502Z,8.50
2019-03-29T13:17:04.356Z,13.33
2019-03-29T13:19:34.264Z,15.10
2019-03-29T13:22:05.742Z,11.27
2019-03-29T13:24:35.694Z,17.55
2019-03-29T13:27:06.681Z,16.77
2019-03-29T13:29:36.662Z,13.90
2019-03-29T13:32:06.603Z,14.13
2019-03-29T13:34:36.528Z,15.83
2019-03-29T13:37:06.510Z,12.43
2019-03-29T13:39:36.416Z,14.20
2019-03-29T13:42:06.416Z,12.33
2019-03-29T13:44:36.320Z,15.20
2019-03-29T13:47:06.240Z,12.13
2019-03-29T13:49:36.106Z,14.20
2019-03-29T13:52:06.052Z,13.77
2019-03-29T13:54:35.916Z,11.10
2019-03-29T13:57:05.854Z,11.90
2019-03-29T13:59:35.725Z,11.30
2019-03-29T14:02:05.653Z,13.37
2019-03-29T14:04:35.511Z,12.17
2019-03-29T14:07:05.514Z,17.00
2019-03-29T14:09:35.420Z,13.37
2019-03-29T14:12:05.648Z,13.83
2019-03-29T14:14:38.672Z,11.97
2019-03-29T14:17:08.910Z,13.77
2019-03-29T14:19:38.812Z,11.33
2019-03-29T14:22:08.703Z,10.97
2019-03-29T14:24:38.604Z,12.97
2019-03-29T14:27:08.464Z,10.33
2019-03-29T14:29:38.356Z,13.67
2019-03-29T14:32:08.278Z,13.33
2019-03-29T14:34:38.200Z,14.80
2019-03-29T14:37:08.225Z,11.57
2019-03-29T14:39:38.677Z,13.13
2019-03-29T14:42:12.409Z,10.07
2019-03-29T14:44:51.816Z,11.80
2019-03-29T14:47:12.759Z,10.10
2019-03-29T14:49:43.246Z,10.83
2019-03-29T14:52:13.614Z,12.87
2019-03-29T14:54:43.716Z,12.07
2019-03-29T14:57:14.031Z,12.00
2019-03-29T14:59:44.349Z,12.98
2019-03-29T15:02:14.271Z,11.20
2019-03-29T15:04:44.181Z,13.93
2019-03-29T15:07:14.053Z,14.83
2019-03-29T15:09:43.948Z,17.17
2019-03-29T15:12:13.835Z,17.53
2019-03-29T15:14:43.743Z,12.90
2019-03-29T15:17:13.617Z,15.00
2019-03-29T15:19:43.519Z,14.97
2019-03-29T15:22:13.418Z,12.07
2019-03-29T15:24:43.301Z,9.77
2019-03-29T15:27:13.210Z,10.90
2019-03-29T15:29:43.163Z,12.73
2019-03-29T15:32:13.128Z,11.77
2019-03-29T15:34:43.010Z,11.83
2019-03-29T15:37:12.903Z,10.30
2019-03-29T15:39:42.786Z,13.90
2019-03-29T15:42:12.697Z,11.70
2019-03-29T15:44:42.620Z,12.87
2019-03-29T15:47:12.539Z,19.93
2019-03-29T15:49:55.101Z,11.40
2019-03-29T15:52:14.093Z,9.83
2019-03-29T15:54:43.981Z,11.50
2019-03-29T15:57:13.950Z,20.17
2019-03-29T15:59:43.846Z,11.40
2019-03-29T16:02:13.739Z,9.17
2019-03-29T16:04:43.648Z,10.67
2019-03-29T16:07:13.683Z,11.20
2019-03-29T16:09:43.550Z,10.17
2019-03-29T16:12:13.473Z,13.50
2019-03-29T16:14:43.426Z,14.27
2019-03-29T16:17:13.320Z,16.53
2019-03-29T16:19:43.214Z,13.00
2019-03-29T16:22:13.169Z,15.33
2019-03-29T16:24:43.058Z,13.97
2019-03-29T16:27:12.971Z,15.53
2019-03-29T16:29:42.871Z,10.33
2019-03-29T16:32:12.787Z,9.70
2019-03-29T16:34:42.701Z,10.20
2019-03-29T16:37:12.654Z,12.00
2019-03-29T16:39:42.547Z,12.10
2019-03-29T16:42:12.502Z,10.53
2019-03-29T16:44:42.440Z,9.37
2019-03-29T16:47:12.432Z,9.43
2019-03-29T16:49:42.331Z,9.73
2019-03-29T16:52:12.252Z,9.23
2019-03-29T16:54:42.176Z,10.00
2019-03-29T16:57:12.102Z,9.20
2019-03-29T16:59:41.998Z,13.03
2019-03-29T17:02:11.953Z,8.87
2019-03-29T17:04:41.878Z,11.93
2019-03-29T17:07:11.792Z,10.30
2019-03-29T17:09:41.679Z,7.67
2019-03-29T17:12:23.292Z,9.17
2019-03-29T17:14:54.382Z,12.13
2019-03-29T17:17:29.544Z,8.97
2019-03-29T17:19:59.587Z,10.43
2019-03-29T17:22:29.546Z,9.07
2019-03-29T17:24:59.504Z,10.63
2019-03-29T17:27:29.452Z,10.93
2019-03-29T17:29:59.431Z,13.77
2019-03-29T17:32:29.392Z,10.10
2019-03-29T17:34:59.325Z,8.50
2019-03-29T17:37:29.322Z,10.43
2019-03-29T17:39:59.320Z,8.43
2019-03-29T17:42:29.210Z,8.77
2019-03-29T17:44:59.253Z,10.47
2019-03-29T17:47:29.312Z,13.23
2019-03-29T17:49:59.311Z,11.73
2019-03-29T17:52:29.233Z,11.07
2019-03-29T17:54:59.236Z,10.13
2019-03-29T17:57:29.402Z,11.00
2019-03-29T17:59:59.469Z,11.40
2019-03-29T18:02:32.765Z,9.37
2019-03-29T18:05:02.858Z,8.60
2019-03-29T18:07:32.949Z,9.37
2019-03-29T18:10:03.049Z,8.70
2019-03-29T18:12:33.109Z,11.80
2019-03-29T18:15:03.200Z,9.30
2019-03-29T18:17:33.240Z,9.60
2019-03-29T18:20:03.291Z,9.23
2019-03-29T18:22:33.408Z,10.50
2019-03-29T18:25:03.473Z,9.83
2019-03-29T18:27:33.443Z,10.63
2019-03-29T18:30:03.418Z,9.87
2019-03-29T18:32:33.544Z,11.43
2019-03-29T18:35:03.629Z,10.60
2019-03-29T18:37:33.769Z,12.63
2019-03-29T18:40:03.937Z,12.73
2019-03-29T18:42:33.901Z,13.10
2019-03-29T18:45:04.072Z,11.60
2019-03-29T18:47:34.265Z,12.97
2019-03-29T18:50:04.746Z,12.20
2019-03-29T18:52:34.875Z,11.13
2019-03-29T18:55:04.875Z,10.67
2019-03-29T18:57:34.935Z,11.47
2019-03-29T19:00:05.585Z,11.23
2019-03-29T19:02:35.680Z,11.20
2019-03-29T19:05:06.612Z,10.20
2019-03-29T19:07:36.838Z,10.93
2019-03-29T19:10:07.431Z,10.80
2019-03-29T19:12:37.460Z,11.87
2019-03-29T19:15:07.726Z,12.63
2019-03-29T19:17:37.834Z,12.07
2019-03-29T19:20:10.255Z,10.47
2019-03-29T19:22:39.905Z,11.40
2019-03-29T19:25:10.103Z,11.00
2019-03-29T19:27:40.172Z,14.10
2019-03-29T19:30:11.114Z,13.33
2019-03-29T19:32:41.260Z,12.50
2019-03-29T19:35:11.339Z,13.27
2019-03-29T19:37:41.325Z,14.87
2019-03-29T19:40:11.738Z,17.37
2019-03-29T19:42:41.807Z,16.50
2019-03-29T19:45:12.032Z,14.60
2019-03-29T19:47:42.028Z,14.97
2019-03-29T19:50:12.989Z,12.17
2019-03-29T19:52:42.999Z,12.53
2019-03-29T19:55:13.212Z,11.57
2019-03-29T19:57:46.353Z,12.07
2019-03-29T20:00:15.251Z,13.97
2019-03-29T20:02:45.312Z,12.70
2019-03-29T20:05:26.643Z,13.00
2019-03-29T20:07:57.652Z,11.40
2019-03-29T20:10:27.625Z,15.10
2019-03-29T20:12:57.778Z,16.30
2019-03-29T20:15:27.818Z,13.33
2019-03-29T20:17:57.923Z,10.80
2019-03-29T20:20:28.108Z,12.50
2019-03-29T20:22:58.727Z,12.07
2019-03-29T20:25:28.840Z,11.17
2019-03-29T20:27:59.541Z,12.57
2019-03-29T20:30:29.632Z,13.17
2019-03-29T20:32:59.784Z,12.43
2019-03-29T20:35:29.870Z,10.80
2019-03-29T20:37:59.861Z,12.97
2019-03-29T20:40:32.082Z,12.87
2019-03-29T20:43:01.610Z,14.00
2019-03-29T20:45:31.644Z,14.20
2019-03-29T20:48:01.627Z,11.63
2019-03-29T20:50:32.015Z,11.43
2019-03-29T20:53:02.152Z,12.73
2019-03-29T20:55:32.160Z,12.03
2019-03-29T20:58:02.176Z,12.63
2019-03-29T21:00:32.285Z,13.13
2019-03-29T21:03:02.239Z,11.07
2019-03-29T21:05:32.277Z,12.67
2019-03-29T21:08:02.517Z,15.20
2019-03-29T21:10:32.633Z,13.97
2019-03-29T21:13:02.700Z,14.10
2019-03-29T21:15:32.759Z,11.87
2019-03-29T21:18:02.860Z,14.87
2019-03-29T21:20:32.841Z,13.13
2019-03-29T21:23:02.912Z,14.40
2019-03-29T21:25:32.989Z,12.57
2019-03-29T21:28:03.006Z,14.87
2019-03-29T21:30:33.153Z,15.43
2019-03-29T21:33:03.226Z,12.67
2019-03-29T21:35:33.307Z,14.10
2019-03-29T21:38:03.402Z,13.63
2019-03-29T21:40:34.512Z,14.83
2019-03-29T21:43:04.485Z,13.93
2019-03-29T21:45:34.444Z,16.17
2019-03-29T21:48:26.905Z,15.30
2019-03-29T21:50:36.139Z,14.60
2019-03-29T21:53:06.166Z,13.57
2019-03-29T21:55:36.273Z,15.50
2019-03-29T21:58:06.214Z,13.77
2019-03-29T22:00:36.152Z,15.93
2019-03-29T22:03:06.144Z,14.70
2019-03-29T22:05:36.134Z,15.27
2019-03-29T22:08:06.220Z,14.67
2019-03-29T22:10:36.188Z,12.63
2019-03-29T22:13:06.170Z,15.80
2019-03-29T22:15:36.205Z,15.67
2019-03-29T22:18:07.018Z,18.63
2019-03-29T22:20:37.107Z,16.13
2019-03-29T22:23:07.168Z,16.80
2019-03-29T22:25:37.242Z,19.83
2019-03-29T22:28:07.176Z,16.30
2019-03-29T22:30:37.116Z,15.00
2019-03-29T22:33:07.118Z,16.40
2019-03-29T22:35:37.051Z,15.23
2019-03-29T22:38:06.973Z,15.77
2019-03-29T22:40:37.014Z,15.57
2019-03-29T22:43:07.607Z,16.13
2019-03-29T22:45:37.766Z,18.57
2019-03-29T22:48:07.676Z,17.50
2019-03-29T22:50:37.632Z,15.77
2019-03-29T22:53:07.587Z,17.37
2019-03-29T22:55:37.502Z,16.83
2019-03-29T22:58:07.398Z,15.87
2019-03-29T23:00:41.420Z,15.93
2019-03-29T23:03:11.385Z,18.53
2019-03-29T23:05:41.353Z,18.90
2019-03-29T23:08:11.328Z,16.07
2019-03-29T23:10:41.322Z,16.17
2019-03-29T23:13:11.300Z,16.97
2019-03-29T23:15:41.294Z,18.67
2019-03-29T23:18:11.222Z,19.47
2019-03-29T23:20:41.202Z,17.50
2019-03-29T23:23:11.169Z,20.67
2019-03-29T23:25:41.055Z,16.13
2019-03-29T23:28:11.034Z,19.67
2019-03-29T23:30:40.986Z,20.90
2019-03-29T23:33:11.018Z,20.50
2019-03-29T23:35:40.947Z,20.97
2019-03-29T23:38:10.948Z,21.70
2019-03-29T23:40:40.860Z,21.77
2019-03-29T23:43:10.773Z,20.70
2019-03-29T23:45:40.672Z,19.93
2019-03-29T23:48:10.618Z,18.10
2019-03-29T23:50:40.514Z,18.67
2019-03-29T23:53:10.504Z,22.17
2019-03-29T23:55:40.489Z,17.17
2019-03-29T23:58:10.407Z,19.57
